Time;durP1;ratioP1;P1;durP2;ratioP2;P2;SDS_P1;SDS_P2;PMS_P1;PMS_P2;Temp;Humidity;BMP_temperature;BMP_pressure;BME280_temperature;BME280_humidity;BME280_pressure;Samples;Min_cycle;Max_cycle;Signal;HPM_P1;HPM_P2
2022/01/06 00:01:30;;;;;;;;;29.75;25.75;;;;;5.36;65.49;101343.25;5056918;28;46005;-67
2022/01/06 00:03:55;;;;;;;;;28.25;24.50;;;;;5.41;65.26;101341.34;5056369;28;45482;-67
2022/01/06 00:06:23;;;;;;;;;29.25;23.25;;;;;5.41;65.31;101344.88;5057251;28;45442;-67
2022/01/06 00:08:48;;;;;;;;;25.25;23.00;;;;;5.41;65.29;101336.09;5056847;28;45446;-68
2022/01/06 00:11:14;;;;;;;;;30.50;25.25;;;;;5.33;66.52;101328.34;5057387;28;45894;-67
2022/01/06 00:16:24;;;;;;;;;22.25;22.25;;;;;5.33;65.76;101336.25;5056996;28;45365;-67
2022/01/06 00:24:23;;;;;;;;;30.75;28.00;;;;;5.19;66.83;101344.47;5056795;28;45358;-67
2022/01/06 00:26:49;;;;;;;;;25.00;23.75;;;;;5.14;66.05;101337.56;5057009;28;45399;-66
2022/01/06 00:29:16;;;;;;;;;32.00;24.25;;;;;5.12;66.26;101344.66;5038661;28;45636;-67
2022/01/06 00:31:42;;;;;;;;;29.75;22.50;;;;;5.17;65.92;101354.19;5056022;28;45509;-67
2022/01/06 00:34:10;;;;;;;;;26.25;24.25;;;;;5.19;66.65;101357.66;5034515;28;45478;-67
2022/01/06 00:36:45;;;;;;;;;24.25;23.00;;;;;5.12;66.39;101358.69;5019821;28;45260;-67
2022/01/06 00:39:11;;;;;;;;;33.00;24.00;;;;;5.15;67.18;101360.41;5055062;28;45224;-65
2022/01/06 00:41:37;;;;;;;;;26.25;22.50;;;;;5.16;66.80;101354.22;5055948;28;45227;-66
2022/01/06 00:44:05;;;;;;;;;18.25;18.25;;;;;5.19;66.77;101360.28;5056330;28;45244;-67
2022/01/06 00:46:31;;;;;;;;;27.50;23.75;;;;;5.17;65.97;101362.09;5056886;28;45390;-67
2022/01/06 00:48:56;;;;;;;;;23.25;23.25;;;;;5.17;67.14;101359.47;5055299;28;45624;-66
2022/01/06 00:51:22;;;;;;;;;20.25;18.00;;;;;5.17;66.87;101363.88;5038145;28;54348;-67
2022/01/06 00:53:48;;;;;;;;;25.00;22.75;;;;;5.10;66.29;101363.13;5038155;28;45580;-66
2022/01/06 00:56:13;;;;;;;;;30.00;21.50;;;;;5.13;67.05;101365.69;5038072;28;45454;-68
2022/01/06 00:58:39;;;;;;;;;34.25;26.25;;;;;5.10;66.32;101352.59;5056211;28;45703;-66
2022/01/06 01:01:04;;;;;;;;;31.25;23.50;;;;;5.12;66.47;101363.97;5037549;28;46023;-66
2022/01/06 01:03:30;;;;;;;;;28.50;20.50;;;;;5.08;66.85;101359.66;5056167;28;45276;-68
2022/01/06 01:05:57;;;;;;;;;25.75;22.25;;;;;5.08;66.97;101364.94;5055569;28;45233;-68
2022/01/06 01:08:24;;;;;;;;;23.75;18.00;;;;;5.09;66.34;101371.09;5055771;28;45245;-65
2022/01/06 01:10:52;;;;;;;;;23.75;20.00;;;;;5.13;67.14;101368.34;5036622;28;46146;-67
2022/01/06 01:13:27;;;;;;;;;24.75;23.00;;;;;5.06;67.01;101357.94;5046283;28;45524;-68
2022/01/06 01:15:55;;;;;;;;;28.25;24.25;;;;;5.06;66.85;101357.94;5056517;28;45478;-66
2022/01/06 01:18:22;;;;;;;;;22.25;20.00;;;;;5.08;67.20;101357.03;5055693;28;45554;-66
2022/01/06 01:20:49;;;;;;;;;26.00;24.00;;;;;5.12;66.76;101366.59;5056051;28;45310;-67
2022/01/06 01:23:15;;;;;;;;;24.25;20.75;;;;;5.06;66.79;101357.94;5055276;28;45474;-66
2022/01/06 01:25:41;;;;;;;;;24.25;24.25;;;;;5.10;66.89;101357.00;5038061;28;45415;-66
2022/01/06 01:28:06;;;;;;;;;28.75;22.75;;;;;5.13;67.03;101363.06;5023548;28;45514;-66
2022/01/06 01:30:40;;;;;;;;;25.00;22.00;;;;;5.13;66.56;101368.34;5055612;28;45382;-65
2022/01/06 01:33:14;;;;;;;;;23.75;21.75;;;;;5.12;66.65;101356.06;5039490;28;45551;-66
2022/01/06 01:35:41;;;;;;;;;23.75;21.00;;;;;5.15;66.72;101363.91;5056320;28;45488;-66
2022/01/06 01:38:07;;;;;;;;;19.50;19.25;;;;;5.15;66.35;101365.66;5056616;28;45370;-65
2022/01/06 01:40:32;;;;;;;;;21.25;15.00;;;;;5.03;66.86;101358.88;5037469;28;46331;-66
2022/01/06 01:42:58;;;;;;;;;20.75;19.75;;;;;5.10;66.54;101367.53;5055360;28;45499;-66
2022/01/06 01:45:28;;;;;;;;;23.00;21.50;;;;;5.10;66.57;101372.81;5056218;28;45366;-67
2022/01/06 01:47:54;;;;;;;;;25.00;20.00;;;;;5.03;66.68;101382.59;5056036;28;45515;-67
2022/01/06 01:50:21;;;;;;;;;38.00;24.00;;;;;5.04;67.00;101384.34;5055427;28;46233;-66
2022/01/06 01:52:49;;;;;;;;;22.50;18.00;;;;;5.06;67.16;101373.75;5055132;28;45551;-67
2022/01/06 01:55:21;;;;;;;;;22.50;19.50;;;;;5.07;67.50;101373.72;5055550;28;45347;-66
2022/01/06 01:57:46;;;;;;;;;30.25;22.50;;;;;5.11;66.69;101385.97;5075018;28;45424;-66
2022/01/06 02:00:13;;;;;;;;;28.75;25.25;;;;;5.12;66.40;101392.09;5055122;28;45415;-67
2022/01/06 02:02:40;;;;;;;;;26.00;19.75;;;;;5.12;67.17;101392.97;5055490;28;45431;-67
2022/01/06 02:05:07;;;;;;;;;22.00;20.75;;;;;5.02;66.52;101391.41;5045918;28;45483;-67
2022/01/06 02:07:33;;;;;;;;;26.50;22.00;;;;;4.92;67.67;101385.47;5037510;28;45398;-67
2022/01/06 02:10:00;;;;;;;;;27.00;18.50;;;;;4.98;66.93;101389.75;5055276;28;46175;-67
2022/01/06 02:12:28;;;;;;;;;27.50;22.00;;;;;5.06;67.41;101398.34;5038425;28;45517;-67
2022/01/06 02:14:54;;;;;;;;;19.25;19.25;;;;;5.05;67.14;101391.34;5055359;28;45324;-67
2022/01/06 02:17:20;;;;;;;;;22.00;18.75;;;;;5.06;66.47;101397.50;5055662;28;45497;-66
2022/01/06 02:19:58;;;;;;;;;23.00;19.50;;;;;4.97;67.11;101382.75;5055692;28;45943;-66
2022/01/06 02:22:24;;;;;;;;;24.50;21.00;;;;;5.03;67.44;101398.44;5020449;28;45478;-68
2022/01/06 02:24:50;;;;;;;;;19.00;19.00;;;;;5.05;66.15;101391.34;5054844;28;45390;-67
2022/01/06 02:27:20;;;;;;;;;34.25;22.25;;;;;5.03;67.13;101398.44;5054318;28;45595;-68
2022/01/06 02:29:47;;;;;;;;;28.75;23.75;;;;;4.91;68.08;101406.59;5053745;28;45496;-68
2022/01/06 02:32:15;;;;;;;;;25.00;23.50;;;;;4.83;67.75;101405.88;5058031;28;45642;-65
2022/01/06 02:34:41;;;;;;;;;23.75;21.25;;;;;4.84;66.83;101397.06;5058705;28;45383;-65
2022/01/06 02:37:07;;;;;;;;;27.50;21.50;;;;;4.89;67.43;101390.78;5039665;28;45533;-66
2022/01/06 02:39:32;;;;;;;;;28.00;18.50;;;;;4.91;66.62;101399.53;5058180;28;46374;-66
2022/01/06 02:41:58;;;;;;;;;18.75;18.00;;;;;4.89;67.01;101390.78;5058309;28;45469;-66
2022/01/06 02:44:25;;;;;;;;;22.25;20.75;;;;;4.88;67.46;101404.00;5058119;28;46044;-66
2022/01/06 02:46:52;;;;;;;;;20.25;17.75;;;;;4.87;67.77;101400.50;5058507;28;45569;-65
2022/01/06 02:49:17;;;;;;;;;15.75;15.75;;;;;4.88;67.03;101398.75;5057961;28;46039;-66
2022/01/06 02:51:43;;;;;;;;;22.50;21.25;;;;;4.84;66.98;101386.53;5058251;28;45442;-66
2022/01/06 02:54:09;;;;;;;;;26.50;21.25;;;;;4.82;67.35;101393.56;5057419;28;45549;-66
2022/01/06 02:56:34;;;;;;;;;23.75;21.00;;;;;4.89;67.05;101403.97;5058643;28;45458;-66
2022/01/06 02:59:00;;;;;;;;;19.50;19.50;;;;;4.93;66.88;101412.69;5058089;28;46172;-65
2022/01/06 03:01:25;;;;;;;;;23.75;22.00;;;;;4.93;66.38;101407.41;5058262;28;45395;-67
2022/01/06 03:03:51;;;;;;;;;27.25;19.00;;;;;4.91;67.29;101409.22;5058221;28;45513;-67
2022/01/06 03:06:16;;;;;;;;;17.50;11.75;;;;;4.95;66.93;101416.19;5040200;28;45307;-65
2022/01/06 03:08:42;;;;;;;;;18.50;16.50;;;;;5.00;66.96;101417.81;5057440;28;46356;-67
2022/01/06 03:11:07;;;;;;;;;22.50;15.75;;;;;5.01;66.69;101410.78;5057923;28;45742;-66
2022/01/06 03:13:33;;;;;;;;;23.75;17.75;;;;;4.99;67.05;101413.44;5058177;28;45257;-66
2022/01/06 03:16:01;;;;;;;;;18.75;18.75;;;;;5.07;66.89;101430.88;5039937;28;47118;-66
2022/01/06 03:18:27;;;;;;;;;19.00;17.25;;;;;5.05;67.30;101430.91;5036459;28;45350;-67
2022/01/06 03:20:52;;;;;;;;;10.00;8.00;;;;;4.94;67.55;101432.88;5056183;28;45497;-67
2022/01/06 03:23:18;;;;;;;;;17.75;16.00;;;;;4.91;67.07;101431.16;5058502;28;45364;-66
2022/01/06 03:25:43;;;;;;;;;18.25;14.00;;;;;5.00;67.02;101428.38;5058292;28;45208;-66
2022/01/06 03:28:09;;;;;;;;;17.75;15.00;;;;;5.04;67.24;101432.66;5057863;28;45509;-67
2022/01/06 03:30:35;;;;;;;;;16.50;15.00;;;;;5.08;67.03;101432.59;5058330;28;45639;-67
2022/01/06 03:33:00;;;;;;;;;19.75;18.50;;;;;5.14;67.04;101433.34;5058380;28;45486;-66
2022/01/06 03:35:26;;;;;;;;;17.25;17.25;;;;;5.16;66.22;101431.56;5056924;28;45655;-67
2022/01/06 03:37:52;;;;;;;;;21.50;14.50;;;;;5.12;66.65;101437.81;5057526;28;45346;-66
2022/01/06 03:40:18;;;;;;;;;18.75;18.75;;;;;4.98;66.93;101431.94;5039022;28;45586;-66
2022/01/06 03:42:44;;;;;;;;;18.00;16.25;;;;;4.95;66.89;101432.00;5056486;28;45478;-67
2022/01/06 03:45:12;;;;;;;;;19.25;14.75;;;;;4.92;67.57;101432.03;5057036;28;45540;-65
2022/01/06 03:47:38;;;;;;;;;21.25;16.50;;;;;5.02;67.30;101433.59;5057115;28;46314;-66
2022/01/06 03:50:04;;;;;;;;;19.75;16.25;;;;;5.02;66.94;101430.97;5057206;28;45510;-67
2022/01/06 03:52:29;;;;;;;;;16.50;16.50;;;;;4.93;67.36;101439.03;5023254;28;45353;-67
2022/01/06 03:54:55;;;;;;;;;21.50;16.75;;;;;4.92;67.17;101445.22;5050296;28;45598;-66
2022/01/06 03:57:20;;;;;;;;;16.75;16.75;;;;;4.87;67.36;101440.03;5056506;28;45441;-67
2022/01/06 03:59:45;;;;;;;;;25.25;18.00;;;;;4.93;67.25;101445.19;5057597;28;45534;-65
2022/01/06 04:02:11;;;;;;;;;11.75;11.00;;;;;5.01;67.38;101452.94;5057067;28;45731;-66
2022/01/06 04:04:37;;;;;;;;;15.00;15.00;;;;;4.92;66.83;101429.41;5048491;28;45428;-68
2022/01/06 04:07:03;;;;;;;;;15.25;14.00;;;;;5.08;67.06;101444.03;5036708;28;46741;-67
2022/01/06 04:09:28;;;;;;;;;19.25;15.50;;;;;5.13;66.43;101450.09;5028016;28;45530;-66
2022/01/06 04:11:54;;;;;;;;;17.00;14.50;;;;;5.09;66.03;101442.28;5049164;28;45477;-66
2022/01/06 04:14:19;;;;;;;;;20.50;14.25;;;;;5.10;66.60;101441.38;5032609;28;45393;-67
2022/01/06 04:16:44;;;;;;;;;13.00;11.25;;;;;5.11;66.58;101438.69;5038264;28;46651;-67
2022/01/06 04:19:10;;;;;;;;;14.75;11.25;;;;;5.12;66.43;101442.22;5056881;28;45480;-67
2022/01/06 04:21:35;;;;;;;;;16.25;14.00;;;;;5.12;66.92;101444.84;5039384;28;45407;-65
2022/01/06 04:24:01;;;;;;;;;13.50;11.75;;;;;5.08;66.70;101427.31;5039879;28;45695;-65
2022/01/06 04:26:27;;;;;;;;;18.00;12.00;;;;;5.17;67.08;101438.56;5035733;28;46036;-67
2022/01/06 04:28:53;;;;;;;;;19.50;14.50;;;;;5.15;66.73;101436.84;5050883;28;45417;-66
2022/01/06 04:31:18;;;;;;;;;10.75;10.75;;;;;5.17;65.96;101437.69;5057076;28;45402;-67
2022/01/06 04:33:44;;;;;;;;;12.75;12.75;;;;;5.04;66.08;101423.88;5037419;28;45324;-65
2022/01/06 04:36:09;;;;;;;;;18.00;14.00;;;;;5.11;66.85;101432.56;5037948;28;46351;-66
2022/01/06 04:38:36;;;;;;;;;13.50;9.50;;;;;5.10;66.34;101438.72;5056857;28;45418;-67
2022/01/06 04:41:03;;;;;;;;;14.00;10.00;;;;;5.09;66.54;101450.19;5056962;28;45480;-67
2022/01/06 04:43:29;;;;;;;;;14.50;12.25;;;;;5.03;67.16;101445.88;5039380;28;45380;-66
2022/01/06 04:45:54;;;;;;;;;12.00;12.00;;;;;5.09;66.26;101437.00;5054722;28;45564;-67
2022/01/06 04:48:20;;;;;;;;;11.75;11.00;;;;;5.11;66.40;101438.69;5055920;28;45459;-66
2022/01/06 04:50:45;;;;;;;;;15.75;12.50;;;;;5.00;66.50;101433.63;5056565;28;45941;-66
2022/01/06 04:53:10;;;;;;;;;14.25;8.50;;;;;4.93;67.22;101447.81;5021125;28;45604;-67
2022/01/06 04:55:36;;;;;;;;;13.75;12.50;;;;;4.93;66.60;101460.13;5055998;28;45374;-67
2022/01/06 04:58:01;;;;;;;;;14.50;13.50;;;;;4.96;67.21;101439.88;5057382;28;45335;-67
2022/01/06 05:00:26;;;;;;;;;17.50;13.50;;;;;4.97;66.66;101452.16;5055530;28;45553;-66
2022/01/06 05:02:52;;;;;;;;;17.75;10.00;;;;;5.00;66.15;101444.19;5056832;28;45232;-67
2022/01/06 05:05:17;;;;;;;;;14.50;11.00;;;;;5.01;66.40;101458.22;5034562;28;46740;-65
2022/01/06 05:07:44;;;;;;;;;14.25;14.00;;;;;4.95;66.60;101447.81;5043545;28;45236;-66
2022/01/06 05:10:10;;;;;;;;;16.50;13.50;;;;;4.96;67.18;101465.38;5056376;28;45258;-66
2022/01/06 05:12:43;;;;;;;;;11.50;11.25;;;;;4.88;66.85;101473.41;5039035;28;45919;-67
2022/01/06 05:15:10;;;;;;;;;14.25;11.25;;;;;4.86;67.28;101475.22;5054707;28;45966;-67
2022/01/06 05:17:35;;;;;;;;;14.00;8.00;;;;;4.87;67.72;101481.34;5056308;28;45505;-65
2022/01/06 05:20:04;;;;;;;;;7.75;7.75;;;;;4.82;68.11;101475.28;5035094;28;45421;-67
2022/01/06 05:22:31;;;;;;;;;18.25;11.25;;;;;4.82;67.43;101477.91;5052591;28;45473;-68
2022/01/06 05:24:56;;;;;;;;;18.25;12.25;;;;;4.78;67.97;101486.78;5056081;28;45569;-67
2022/01/06 05:27:22;;;;;;;;;11.00;11.00;;;;;4.64;67.66;101464.19;5055906;28;45452;-67
2022/01/06 05:29:47;;;;;;;;;14.50;9.75;;;;;4.69;68.02;101483.44;5056168;28;45335;-67
2022/01/06 05:32:13;;;;;;;;;14.00;12.25;;;;;4.69;67.47;101493.09;5038018;28;45588;-67
2022/01/06 05:34:38;;;;;;;;;16.00;12.00;;;;;4.65;67.88;101476.44;5055178;28;46202;-66
2022/01/06 05:37:04;;;;;;;;;16.25;14.75;;;;;4.73;67.60;101478.97;5037702;28;45407;-67
2022/01/06 05:39:29;;;;;;;;;14.00;14.00;;;;;4.82;66.86;101484.06;5056367;28;45759;-67
2022/01/06 05:41:55;;;;;;;;;19.00;14.25;;;;;4.88;66.62;101485.72;5055664;28;45232;-66
2022/01/06 05:44:20;;;;;;;;;11.75;11.75;;;;;4.89;67.34;101501.50;5055350;28;46089;-65
2022/01/06 05:46:47;;;;;;;;;12.75;12.75;;;;;4.94;66.61;101501.41;5054294;28;45479;-66
2022/01/06 05:49:13;;;;;;;;;10.75;10.75;;;;;4.96;67.40;101495.22;5054863;28;45359;-65
2022/01/06 05:51:39;;;;;;;;;11.00;11.00;;;;;4.90;66.55;101503.22;5055626;28;45402;-66
2022/01/06 05:54:04;;;;;;;;;11.75;9.75;;;;;4.86;67.29;101500.69;5055278;28;45323;-65
2022/01/06 05:56:30;;;;;;;;;17.50;15.00;;;;;4.86;66.96;101503.31;5055781;28;45440;-65
2022/01/06 05:58:55;;;;;;;;;13.00;10.00;;;;;4.76;67.74;101488.56;5055696;28;45373;-66
2022/01/06 06:01:20;;;;;;;;;13.75;12.00;;;;;4.81;67.67;101503.38;5054836;28;45469;-66
2022/01/06 06:03:46;;;;;;;;;12.25;10.75;;;;;4.81;67.34;101499.88;5054702;28;45524;-65
2022/01/06 06:06:11;;;;;;;;;13.75;11.75;;;;;4.76;67.27;101504.38;5034996;28;45394;-66
2022/01/06 06:08:36;;;;;;;;;16.75;14.25;;;;;4.73;67.44;101522.00;5056202;28;45410;-66
2022/01/06 06:11:02;;;;;;;;;21.00;15.25;;;;;4.62;68.02;101520.44;5055673;28;45770;-66
2022/01/06 06:13:27;;;;;;;;;16.75;14.00;;;;;4.57;68.00;101531.06;5055444;28;46021;-66
2022/01/06 06:15:53;;;;;;;;;20.50;12.25;;;;;4.57;68.08;101536.31;5052382;28;45177;-66
2022/01/06 06:18:18;;;;;;;;;23.75;17.50;;;;;4.44;68.45;101533.00;5054010;28;45482;-66
2022/01/06 06:20:43;;;;;;;;;17.00;14.00;;;;;4.44;69.00;101524.25;5055119;28;45452;-67
2022/01/06 06:23:09;;;;;;;;;26.25;20.50;;;;;4.39;68.78;101526.94;5037393;28;46847;-66
2022/01/06 06:25:35;;;;;;;;;14.25;11.75;;;;;4.48;68.45;101525.06;5055855;28;45311;-67
2022/01/06 06:28:00;;;;;;;;;15.00;15.00;;;;;4.60;68.21;101536.25;5055616;28;45324;-68
2022/01/06 06:30:26;;;;;;;;;18.25;11.50;;;;;4.65;67.96;101531.78;5055255;28;45266;-67
2022/01/06 06:32:51;;;;;;;;;20.00;14.00;;;;;4.70;67.85;101532.59;5054748;28;45814;-67
2022/01/06 06:35:17;;;;;;;;;21.50;16.00;;;;;4.74;67.42;101539.53;5055358;28;45375;-67
2022/01/06 06:37:42;;;;;;;;;20.00;15.50;;;;;4.78;67.05;101539.47;5055516;28;45430;-68
2022/01/06 06:40:09;;;;;;;;;17.00;14.75;;;;;4.79;68.01;101546.47;5055345;28;45540;-67
2022/01/06 06:42:34;;;;;;;;;15.50;15.50;;;;;4.88;67.06;101543.69;5054606;28;45529;-67
2022/01/06 06:45:00;;;;;;;;;14.75;12.50;;;;;4.97;67.23;101544.41;5034683;28;45605;-67
2022/01/06 06:47:26;;;;;;;;;16.75;16.50;;;;;4.94;67.64;101535.66;5048904;28;45322;-71
2022/01/06 06:49:52;;;;;;;;;13.50;13.50;;;;;5.07;67.46;101550.38;5056803;28;45370;-69
2022/01/06 06:52:17;;;;;;;;;18.25;14.00;;;;;5.04;67.26;101542.53;5055184;28;45718;-69
2022/01/06 06:54:43;;;;;;;;;17.25;11.50;;;;;5.05;66.90;101549.53;5037482;28;45285;-69
2022/01/06 06:57:09;;;;;;;;;14.00;14.00;;;;;5.04;66.69;101546.03;5054536;28;45447;-67
2022/01/06 06:59:35;;;;;;;;;17.50;15.25;;;;;5.04;66.80;101553.94;5055070;28;45569;-68
2022/01/06 07:02:01;;;;;;;;;17.00;17.00;;;;;5.15;66.20;101550.25;5053611;28;46133;-65
2022/01/06 07:04:26;;;;;;;;;15.00;13.00;;;;;5.15;65.94;101545.84;5051312;28;45679;-69
2022/01/06 07:06:52;;;;;;;;;14.50;12.50;;;;;5.17;67.00;101554.59;5054141;28;45374;-64
2022/01/06 07:09:17;;;;;;;;;12.50;12.50;;;;;5.14;65.87;101544.09;5037348;28;45553;-62
2022/01/06 07:11:43;;;;;;;;;16.25;14.75;;;;;5.14;66.32;101546.75;5055517;28;45573;-65
2022/01/06 07:14:08;;;;;;;;;18.50;14.00;;;;;5.19;65.89;101557.19;5054943;28;45307;-64
2022/01/06 07:16:34;;;;;;;;;19.50;17.00;;;;;5.18;66.42;101560.72;5055822;28;45840;-70
2022/01/06 07:19:05;;;;;;;;;15.75;15.00;;;;;5.10;66.25;101560.88;5037919;28;45366;-68
2022/01/06 07:21:37;;;;;;;;;12.00;12.00;;;;;5.08;66.54;101552.13;5058233;28;46281;-66
2022/01/06 07:24:05;;;;;;;;;12.50;12.50;;;;;5.14;66.39;101562.56;5058780;28;45383;-69
2022/01/06 07:26:31;;;;;;;;;21.00;13.00;;;;;5.18;66.75;101556.31;5040205;28;45568;-68
2022/01/06 07:28:57;;;;;;;;;16.75;14.75;;;;;5.26;67.26;101554.44;5058988;28;45546;-69
2022/01/06 07:31:22;;;;;;;;;15.50;15.50;;;;;5.28;66.97;101547.34;5058212;28;45371;-70
2022/01/06 07:33:47;;;;;;;;;15.50;12.50;;;;;5.32;65.90;101554.28;5038976;28;45465;-69
2022/01/06 07:36:13;;;;;;;;;20.25;13.00;;;;;5.36;65.74;101565.69;5058199;28;45387;-69
2022/01/06 07:38:38;;;;;;;;;15.25;14.00;;;;;5.37;66.46;101561.28;5058618;28;45335;-67
2022/01/06 07:41:04;;;;;;;;;20.25;14.75;;;;;5.42;65.72;101560.28;5057426;28;45516;-69
2022/01/06 07:43:32;;;;;;;;;20.25;15.50;;;;;5.44;65.68;101562.88;5058819;28;45352;-69
2022/01/06 07:45:58;;;;;;;;;26.75;17.50;;;;;5.45;66.00;101559.34;5058496;28;45319;-71
2022/01/06 07:48:36;;;;;;;;;17.75;14.25;;;;;5.40;65.49;101548.88;5058222;28;45750;-72
2022/01/06 07:51:02;;;;;;;;;17.00;15.00;;;;;5.51;66.45;101569.78;5056563;28;46404;-69
2022/01/06 07:53:28;;;;;;;;;11.75;10.75;;;;;5.55;65.99;101582.00;5039483;28;45385;-69
2022/01/06 07:55:53;;;;;;;;;22.00;15.00;;;;;5.55;65.46;101579.38;5057988;28;45271;-71
2022/01/06 07:58:19;;;;;;;;;15.25;11.50;;;;;5.52;65.90;101579.44;5040444;28;45426;-71
2022/01/06 08:00:44;;;;;;;;;15.75;15.25;;;;;5.48;65.67;101569.84;5058105;28;47040;-70
2022/01/06 08:03:10;;;;;;;;;18.00;15.00;;;;;5.56;65.49;101579.34;5055037;28;45423;-69
2022/01/06 08:05:35;;;;;;;;;16.25;15.00;;;;;5.55;65.16;101580.25;5057111;28;45486;-70
2022/01/06 08:08:01;;;;;;;;;20.00;17.75;;;;;5.54;65.34;101564.44;5056979;28;45478;-69
2022/01/06 08:10:26;;;;;;;;;13.00;11.50;;;;;5.55;65.86;101566.19;5051100;28;45991;-69
2022/01/06 08:12:52;;;;;;;;;14.75;12.25;;;;;5.62;65.27;101571.31;5054407;28;45300;-70
2022/01/06 08:15:17;;;;;;;;;13.25;11.50;;;;;5.64;64.67;101573.94;5056769;28;45352;-69
2022/01/06 08:17:43;;;;;;;;;20.50;12.25;;;;;5.62;64.97;101562.53;5057611;28;45568;-70
2022/01/06 08:20:10;;;;;;;;;17.25;13.25;;;;;5.68;65.08;101577.38;5055712;28;45904;-69
2022/01/06 08:22:36;;;;;;;;;14.00;14.00;;;;;5.71;64.58;101580.78;5056766;28;45326;-70
2022/01/06 08:25:08;;;;;;;;;12.00;12.00;;;;;5.73;65.29;101586.94;5056404;28;45466;-70
2022/01/06 08:27:33;;;;;;;;;14.75;11.00;;;;;5.78;64.00;101585.06;5057098;28;45335;-69
2022/01/06 08:29:59;;;;;;;;;15.00;11.25;;;;;5.78;65.03;101590.34;5056199;28;45496;-69
2022/01/06 08:32:24;;;;;;;;;16.25;15.00;;;;;5.83;65.42;101583.19;5056347;28;45499;-68
2022/01/06 08:34:50;;;;;;;;;22.00;15.50;;;;;5.81;64.44;101574.44;5056649;28;45320;-68
2022/01/06 08:37:17;;;;;;;;;24.25;17.75;;;;;5.87;64.29;101589.31;5056329;28;45560;-70
2022/01/06 08:39:42;;;;;;;;;21.25;15.25;;;;;5.80;64.56;101593.81;5051407;28;47874;-71
2022/01/06 08:42:08;;;;;;;;;13.25;13.25;;;;;5.82;64.54;101592.00;5051741;28;45542;-69
2022/01/06 08:44:34;;;;;;;;;15.50;15.00;;;;;5.83;64.82;101570.00;5055745;28;45280;-71
2022/01/06 08:47:01;;;;;;;;;15.50;13.50;;;;;5.98;64.67;101586.44;5056045;28;45236;-69
2022/01/06 08:49:28;;;;;;;;;19.75;16.25;;;;;6.04;64.75;101591.59;5054932;28;45217;-71
2022/01/06 08:51:53;;;;;;;;;14.75;14.00;;;;;6.06;63.49;101595.09;5019269;28;47051;-69
2022/01/06 08:54:19;;;;;;;;;21.75;15.75;;;;;6.05;63.46;101598.63;5055534;28;45542;-69
2022/01/06 08:56:45;;;;;;;;;16.00;15.00;;;;;6.03;63.75;101593.38;5055584;28;45494;-69
2022/01/06 08:59:10;;;;;;;;;22.75;17.50;;;;;6.03;63.49;101595.16;5055279;28;46216;-70
2022/01/06 09:01:36;;;;;;;;;17.25;15.25;;;;;6.07;64.20;101596.81;5055602;28;45390;-71
2022/01/06 09:04:02;;;;;;;;;18.75;18.50;;;;;6.10;63.11;101597.63;5037870;28;45763;-71
2022/01/06 09:06:28;;;;;;;;;17.00;14.75;;;;;6.06;63.60;101592.44;5055476;28;45427;-70
2022/01/06 09:08:53;;;;;;;;;18.50;13.50;;;;;6.11;64.09;101598.47;5055806;28;45446;-71
2022/01/06 09:11:19;;;;;;;;;12.75;12.75;;;;;6.11;63.43;101587.91;5056030;28;45446;-69
2022/01/06 09:13:44;;;;;;;;;20.25;18.00;;;;;6.14;63.56;101599.31;5037583;28;45390;-70
2022/01/06 09:16:10;;;;;;;;;22.00;16.00;;;;;6.11;63.50;101588.78;5037225;28;45641;-69
2022/01/06 09:18:37;;;;;;;;;13.50;13.00;;;;;6.23;63.07;101608.78;5053388;28;46280;-70
2022/01/06 09:21:04;;;;;;;;;15.75;14.75;;;;;6.29;63.91;101602.50;5056616;28;45355;-69
2022/01/06 09:23:29;;;;;;;;;19.75;15.50;;;;;6.34;63.75;101606.78;5054505;28;45227;-70
2022/01/06 09:25:54;;;;;;;;;17.75;15.25;;;;;6.39;63.54;101594.34;5056240;28;45451;-71
2022/01/06 09:28:20;;;;;;;;;16.25;15.50;;;;;6.49;63.00;101595.84;5056093;28;46252;-70
2022/01/06 09:30:45;;;;;;;;;18.50;13.25;;;;;6.54;62.41;101597.53;5035952;28;45586;-70
2022/01/06 09:33:11;;;;;;;;;15.75;15.75;;;;;6.54;62.03;101602.81;5055663;28;45323;-69
2022/01/06 09:35:37;;;;;;;;;15.50;15.50;;;;;6.50;62.44;101602.00;5055331;28;45618;-69
2022/01/06 09:38:03;;;;;;;;;21.50;19.50;;;;;6.61;61.95;101612.34;5036487;28;46965;-69
2022/01/06 09:40:29;;;;;;;;;20.75;16.75;;;;;6.63;62.45;101615.81;5036072;28;45713;-69
2022/01/06 09:42:55;;;;;;;;;20.25;16.25;;;;;6.61;61.78;101617.63;5036439;28;45507;-70
2022/01/06 09:45:24;;;;;;;;;20.50;19.50;;;;;6.62;61.96;101616.72;5054537;28;45581;-70
2022/01/06 09:47:49;;;;;;;;;14.75;13.25;;;;;6.68;61.92;101619.22;5054377;28;46167;-70
2022/01/06 09:50:15;;;;;;;;;15.75;12.50;;;;;6.71;61.68;101627.06;5054263;28;45419;-70
2022/01/06 09:52:40;;;;;;;;;16.25;14.50;;;;;6.72;61.86;101627.03;5054274;28;45499;-70
2022/01/06 09:55:07;;;;;;;;;20.50;15.75;;;;;6.78;62.26;101636.63;5054457;28;45375;-69
2022/01/06 09:57:32;;;;;;;;;17.75;15.25;;;;;6.65;61.56;101619.31;5054902;28;46838;-71
2022/01/06 09:59:58;;;;;;;;;20.50;17.25;;;;;6.77;61.62;101632.22;5036702;28;45465;-69
2022/01/06 10:02:32;;;;;;;;;21.25;15.00;;;;;6.79;61.98;101627.78;5054208;28;45605;-71
2022/01/06 10:05:00;;;;;;;;;17.25;15.25;;;;;6.85;61.27;101630.25;5053148;28;45424;-69
2022/01/06 10:07:25;;;;;;;;;17.50;12.00;;;;;6.90;60.83;101638.97;5054596;28;45562;-71
2022/01/06 10:09:50;;;;;;;;;19.50;17.25;;;;;6.91;61.22;101632.78;5054779;28;45515;-71
2022/01/06 10:12:16;;;;;;;;;15.00;13.00;;;;;6.94;61.39;101630.06;5037729;28;45335;-70
2022/01/06 10:14:46;;;;;;;;;21.25;13.00;;;;;6.93;61.30;101632.72;5054528;28;45370;-68
2022/01/06 10:17:28;;;;;;;;;18.50;12.50;;;;;6.85;61.35;101643.47;5036026;28;47498;-70
2022/01/06 10:19:54;;;;;;;;;18.50;15.50;;;;;6.87;61.15;101633.72;5054852;28;45403;-69
2022/01/06 10:22:20;;;;;;;;;16.50;12.50;;;;;6.98;61.11;101631.69;5053876;28;45383;-69
2022/01/06 10:24:48;;;;;;;;;21.25;16.50;;;;;7.06;61.19;101637.69;5055169;28;45522;-70
2022/01/06 10:27:19;;;;;;;;;17.25;13.50;;;;;7.14;61.02;101629.53;5053926;28;45543;-69
2022/01/06 10:29:47;;;;;;;;;15.25;13.25;;;;;7.19;60.80;101630.31;5054197;28;45264;-69
2022/01/06 10:32:19;;;;;;;;;14.25;13.00;;;;;7.24;60.34;101632.81;5034664;28;45362;-72
2022/01/06 10:34:50;;;;;;;;;20.25;16.50;;;;;7.31;60.87;101635.28;5055223;28;45267;-70
2022/01/06 10:37:27;;;;;;;;;18.00;16.50;;;;;7.35;60.37;101641.34;5029225;28;47021;-69
2022/01/06 10:40:06;;;;;;;;;15.50;15.25;;;;;7.41;60.06;101638.53;5048882;28;45359;-70
2022/01/06 10:42:38;;;;;;;;;16.25;16.25;;;;;7.43;60.03;101628.81;5051234;28;45469;-71
2022/01/06 10:45:14;;;;;;;;;15.25;15.25;;;;;7.50;60.08;101630.38;5055150;28;45645;-67
2022/01/06 10:47:42;;;;;;;;;14.00;14.00;;;;;7.47;60.15;101625.16;5060410;28;45437;-69
2022/01/06 10:50:10;;;;;;;;;19.25;16.75;;;;;7.55;60.82;101625.84;5060305;28;45349;-67
2022/01/06 10:52:39;;;;;;;;;21.25;18.00;;;;;7.62;60.11;101627.38;5062538;28;45287;-69
2022/01/06 10:55:16;;;;;;;;;16.25;15.25;;;;;7.60;59.47;101621.28;5047107;28;45589;-69
2022/01/06 10:57:51;;;;;;;;;21.25;19.25;;;;;7.63;59.82;101613.22;5047179;28;47105;-68
2022/01/06 11:00:18;;;;;;;;;16.00;13.00;;;;;7.72;60.30;101619.19;5065876;28;45524;-67
2022/01/06 11:02:43;;;;;;;;;21.25;16.75;;;;;7.75;59.28;101619.09;5065602;28;45453;-67
2022/01/06 11:05:09;;;;;;;;;19.25;18.25;;;;;7.64;58.14;101607.03;5064982;28;45358;-68
2022/01/06 11:07:35;;;;;;;;;16.75;15.25;;;;;7.68;59.24;101606.06;5063935;28;45335;-67
2022/01/06 11:10:05;;;;;;;;;20.25;17.75;;;;;7.77;59.26;101594.31;5046461;28;45429;-68
2022/01/06 11:12:33;;;;;;;;;20.25;14.75;;;;;7.80;58.64;101593.34;5063761;28;45354;-67
2022/01/06 11:15:00;;;;;;;;;13.75;12.25;;;;;7.76;59.04;101578.47;5045237;28;45665;-67
2022/01/06 11:17:25;;;;;;;;;9.50;9.50;;;;;7.91;58.11;101573.59;5063724;28;45446;-66
2022/01/06 11:19:51;;;;;;;;;13.75;8.75;;;;;8.03;57.17;101577.66;5044898;28;45406;-69
2022/01/06 11:22:24;;;;;;;;;15.00;10.00;;;;;8.22;57.67;101586.81;5062235;28;45602;-67